createdAt,value
2019-03-06T00:01:36.995Z,91.34
2019-03-06T00:04:03.022Z,91.27
2019-03-06T00:06:28.812Z,91.27
2019-03-06T00:08:54.593Z,91.34
2019-03-06T00:11:20.367Z,91.48
2019-03-06T00:13:46.166Z,91.52
2019-03-06T00:16:11.941Z,91.36
2019-03-06T00:18:37.932Z,91.65
2019-03-06T00:21:03.846Z,91.43
2019-03-06T00:23:29.630Z,91.52
2019-03-06T00:25:55.624Z,91.90
2019-03-06T00:28:21.425Z,91.90
2019-03-06T00:30:47.199Z,91.65
2019-03-06T00:33:13.000Z,91.32
2019-03-06T00:35:46.878Z,91.30
2019-03-06T00:38:13.020Z,90.84
2019-03-06T00:40:43.295Z,90.73
2019-03-06T00:43:09.082Z,90.82
2019-03-06T00:45:34.864Z,90.50
2019-03-06T00:48:00.646Z,90.69
2019-03-06T00:50:26.437Z,90.73
2019-03-06T00:52:52.210Z,90.93
2019-03-06T00:55:18.007Z,90.82
2019-03-06T00:57:43.784Z,90.82
2019-03-06T01:00:12.686Z,91.26
2019-03-06T01:02:38.477Z,91.26
2019-03-06T01:05:06.669Z,91.46
2019-03-06T01:07:32.451Z,91.32
2019-03-06T01:09:58.240Z,91.37
2019-03-06T01:12:24.021Z,90.89
2019-03-06T01:14:49.810Z,90.89
2019-03-06T01:17:15.593Z,91.10
2019-03-06T01:19:41.403Z,90.91
2019-03-06T01:22:07.182Z,91.24
2019-03-06T01:24:33.389Z,91.33
2019-03-06T01:26:59.169Z,91.25
2019-03-06T01:29:24.965Z,91.24
2019-03-06T01:31:50.741Z,91.50
2019-03-06T01:34:18.422Z,91.13
2019-03-06T01:36:51.877Z,91.67
2019-03-06T01:39:19.564Z,91.71
2019-03-06T01:41:47.265Z,91.78
2019-03-06T01:44:17.487Z,92.29
2019-03-06T01:46:43.278Z,91.73
2019-03-06T01:49:09.055Z,92.00
2019-03-06T01:51:35.149Z,91.80
2019-03-06T01:54:00.923Z,91.58
2019-03-06T01:56:26.710Z,91.79
2019-03-06T01:58:52.487Z,91.82
2019-03-06T02:01:18.273Z,91.95
2019-03-06T02:03:44.061Z,92.47
2019-03-06T02:06:09.850Z,92.31
2019-03-06T02:08:35.625Z,92.44
2019-03-06T02:11:01.414Z,92.50
2019-03-06T02:13:27.186Z,92.26
2019-03-06T02:15:52.986Z,92.61
2019-03-06T02:18:18.763Z,92.37
2019-03-06T02:20:44.571Z,92.53
2019-03-06T02:23:10.660Z,92.32
2019-03-06T02:25:36.436Z,92.12
2019-03-06T02:28:02.224Z,92.09
2019-03-06T02:30:28.096Z,92.05
2019-03-06T02:32:53.880Z,92.27
2019-03-06T02:35:19.656Z,92.27
2019-03-06T02:37:45.544Z,92.21
2019-03-06T02:40:11.522Z,92.39
2019-03-06T02:42:37.306Z,92.16
2019-03-06T02:45:12.166Z,92.32
2019-03-06T02:47:37.960Z,92.20
2019-03-06T02:50:07.003Z,92.59
2019-03-06T02:52:32.803Z,92.29
2019-03-06T02:54:58.584Z,92.33
2019-03-06T02:57:24.367Z,92.39
2019-03-06T02:59:52.063Z,92.47
2019-03-06T03:02:32.108Z,92.39
2019-03-06T03:04:59.797Z,92.37
2019-03-06T03:07:25.593Z,92.37
2019-03-06T03:09:51.370Z,92.52
2019-03-06T03:12:17.154Z,92.70
2019-03-06T03:14:42.930Z,92.56
2019-03-06T03:17:08.717Z,92.55
2019-03-06T03:19:34.491Z,92.46
2019-03-06T03:22:00.597Z,92.42
2019-03-06T03:24:26.377Z,92.43
2019-03-06T03:26:52.161Z,92.33
2019-03-06T03:29:17.984Z,92.33
2019-03-06T03:31:43.861Z,92.29
2019-03-06T03:34:09.623Z,92.26
2019-03-06T03:36:35.398Z,91.91
2019-03-06T03:39:01.503Z,92.11
2019-03-06T03:41:27.281Z,92.17
2019-03-06T03:43:53.170Z,92.47
2019-03-06T03:46:18.943Z,92.25
2019-03-06T03:48:44.728Z,92.27
2019-03-06T03:51:10.505Z,92.14
2019-03-06T03:53:36.299Z,92.25
2019-03-06T03:56:02.385Z,92.33
2019-03-06T03:58:28.186Z,92.26
2019-03-06T04:00:54.261Z,92.40
2019-03-06T04:03:20.062Z,92.02
2019-03-06T04:05:45.837Z,92.08
2019-03-06T04:08:11.631Z,91.98
2019-03-06T04:10:37.413Z,92.02
2019-03-06T04:13:03.517Z,91.83
2019-03-06T04:15:29.321Z,92.00
2019-03-06T04:17:55.133Z,91.85
2019-03-06T04:20:21.042Z,91.69
2019-03-06T04:22:46.825Z,91.80
2019-03-06T04:25:12.615Z,91.92
2019-03-06T04:27:38.394Z,91.85
2019-03-06T04:30:15.739Z,91.72
2019-03-06T04:32:41.521Z,91.67
2019-03-06T04:35:07.308Z,91.39
2019-03-06T04:37:33.081Z,91.31
2019-03-06T04:39:58.880Z,91.33
2019-03-06T04:42:24.657Z,91.10
2019-03-06T04:44:50.440Z,91.22
2019-03-06T04:47:16.218Z,91.18
2019-03-06T04:49:42.010Z,91.21
2019-03-06T04:52:07.794Z,91.52
2019-03-06T04:54:33.677Z,91.39
2019-03-06T04:56:59.603Z,91.43
2019-03-06T04:59:25.960Z,91.34
2019-03-06T05:01:52.052Z,91.62
2019-03-06T05:04:18.007Z,91.30
2019-03-06T05:06:43.956Z,91.15
2019-03-06T05:09:09.894Z,91.00
2019-03-06T05:11:35.717Z,91.08
2019-03-06T05:14:01.509Z,90.97
2019-03-06T05:16:29.188Z,91.04
2019-03-06T05:18:56.595Z,91.07
2019-03-06T05:21:22.396Z,90.83
2019-03-06T05:23:48.171Z,90.61
2019-03-06T05:26:13.979Z,90.84
2019-03-06T05:28:39.752Z,90.56
2019-03-06T05:31:05.757Z,90.92
2019-03-06T05:33:31.538Z,91.08
2019-03-06T05:36:10.158Z,90.66
2019-03-06T05:39:01.083Z,90.66
2019-03-06T05:41:26.868Z,91.08
2019-03-06T05:43:52.641Z,91.00
2019-03-06T05:46:18.433Z,91.05
2019-03-06T05:48:44.204Z,91.02
2019-03-06T05:51:10.005Z,90.95
2019-03-06T05:53:36.189Z,91.10
2019-03-06T05:56:01.987Z,91.01
2019-03-06T05:58:27.766Z,91.12
2019-03-06T06:00:53.557Z,91.14
2019-03-06T06:03:19.338Z,91.08
2019-03-06T06:05:45.131Z,91.06
2019-03-06T06:08:10.908Z,90.89
2019-03-06T06:10:36.712Z,90.83
2019-03-06T06:13:02.489Z,91.05
2019-03-06T06:15:28.303Z,91.12
2019-03-06T06:17:54.079Z,91.12
2019-03-06T06:20:19.900Z,90.76
2019-03-06T06:22:47.580Z,90.76
2019-03-06T06:25:13.574Z,90.79
2019-03-06T06:27:39.358Z,91.06
2019-03-06T06:30:10.399Z,91.09
2019-03-06T06:32:36.177Z,90.94
2019-03-06T06:35:03.885Z,91.00
2019-03-06T06:37:29.661Z,90.92
2019-03-06T06:39:55.549Z,90.69
2019-03-06T06:42:21.330Z,90.64
2019-03-06T06:44:47.119Z,90.47
2019-03-06T06:47:12.902Z,90.59
2019-03-06T06:49:38.685Z,90.71
2019-03-06T06:52:27.906Z,90.99
2019-03-06T06:55:30.740Z,90.83
2019-03-06T06:58:00.628Z,90.67
2019-03-06T07:00:52.626Z,90.74
2019-03-06T07:03:40.990Z,90.71
2019-03-06T07:06:14.644Z,90.71
2019-03-06T07:08:44.842Z,90.91
2019-03-06T07:11:24.410Z,90.95
2019-03-06T07:13:52.094Z,91.03
2019-03-06T07:16:31.744Z,90.99
2019-03-06T07:19:11.193Z,91.13
2019-03-06T07:21:47.718Z,90.78
2019-03-06T07:24:30.520Z,90.98
2019-03-06T07:27:01.219Z,90.83
2019-03-06T07:29:34.452Z,90.62
2019-03-06T07:32:04.976Z,90.58
2019-03-06T07:34:32.670Z,90.51
2019-03-06T07:37:09.184Z,90.42
2019-03-06T07:39:36.865Z,90.30
2019-03-06T07:42:04.559Z,90.12
2019-03-06T07:44:48.917Z,90.01
2019-03-06T07:47:22.575Z,89.92
2019-03-06T07:50:05.673Z,89.71
2019-03-06T07:52:36.370Z,89.71
2019-03-06T07:55:12.827Z,89.51
2019-03-06T07:58:11.224Z,89.46
2019-03-06T08:00:37.006Z,89.27
2019-03-06T08:03:04.895Z,89.36
2019-03-06T08:05:30.676Z,89.46
2019-03-06T08:07:56.478Z,89.32
2019-03-06T08:10:24.180Z,89.09
2019-03-06T08:12:51.860Z,89.27
2019-03-06T08:15:31.393Z,88.94
2019-03-06T08:17:59.097Z,88.88
2019-03-06T08:20:38.858Z,88.21
2019-03-06T08:23:12.380Z,87.97
2019-03-06T08:25:43.710Z,87.74
2019-03-06T08:28:10.397Z,87.94
2019-03-06T08:30:43.240Z,87.06
2019-03-06T08:33:17.728Z,86.89
2019-03-06T08:35:36.538Z,86.83
2019-03-06T08:38:02.336Z,86.35
2019-03-06T08:40:28.115Z,86.07
2019-03-06T08:42:53.905Z,85.70
2019-03-06T08:45:24.108Z,85.47
2019-03-06T08:48:08.861Z,85.10
2019-03-06T08:50:54.931Z,85.03
2019-03-06T08:53:25.421Z,85.73
2019-03-06T08:55:53.105Z,85.92
2019-03-06T08:58:37.169Z,86.31
2019-03-06T09:01:34.368Z,86.70
2019-03-06T09:04:02.664Z,87.20
2019-03-06T09:06:36.367Z,87.57
2019-03-06T09:09:17.903Z,88.07
2019-03-06T09:11:45.581Z,88.32
2019-03-06T09:14:29.659Z,88.65
2019-03-06T09:17:14.057Z,88.95
2019-03-06T09:19:44.556Z,89.01
2019-03-06T09:22:20.880Z,89.33
2019-03-06T09:24:57.160Z,89.52
2019-03-06T09:27:27.769Z,89.12
2019-03-06T09:30:01.517Z,89.40
2019-03-06T09:32:45.853Z,89.66
2019-03-06T09:35:16.322Z,90.18
2019-03-06T09:37:50.028Z,90.42
2019-03-06T09:40:20.507Z,90.22
2019-03-06T09:42:48.193Z,90.63
2019-03-06T09:45:21.633Z,90.38
2019-03-06T09:47:49.312Z,90.86
2019-03-06T09:50:33.771Z,90.89
2019-03-06T09:53:10.414Z,91.11
2019-03-06T09:55:44.197Z,91.21
2019-03-06T09:58:20.453Z,91.26
2019-03-06T10:00:50.081Z,91.41
2019-03-06T10:03:17.768Z,91.21
2019-03-06T10:05:48.593Z,91.09
2019-03-06T10:08:16.279Z,90.81
2019-03-06T10:10:56.994Z,90.60
2019-03-06T10:13:16.329Z,90.47
2019-03-06T10:15:52.825Z,90.20
2019-03-06T10:18:20.614Z,90.54
2019-03-06T10:20:46.416Z,90.03
2019-03-06T10:23:12.209Z,89.93
2019-03-06T10:25:42.635Z,89.96
2019-03-06T10:28:08.429Z,89.67
2019-03-06T10:30:34.307Z,89.67
2019-03-06T10:33:00.097Z,88.82
2019-03-06T10:35:25.896Z,89.62
2019-03-06T10:37:51.979Z,89.03
2019-03-06T10:40:18.165Z,88.93
2019-03-06T10:42:43.975Z,89.06
2019-03-06T10:45:10.857Z,88.96
2019-03-06T10:47:36.660Z,88.08
2019-03-06T10:50:06.270Z,88.51
2019-03-06T10:52:33.573Z,88.29
2019-03-06T10:54:59.359Z,88.29
2019-03-06T10:57:25.147Z,88.55
2019-03-06T10:59:50.947Z,87.74
2019-03-06T11:02:17.217Z,87.74
2019-03-06T11:04:44.913Z,88.01
2019-03-06T11:07:11.013Z,87.79
2019-03-06T11:09:36.797Z,87.93
2019-03-06T11:12:03.193Z,87.61
2019-03-06T11:14:29.181Z,87.07
2019-03-06T11:16:55.007Z,86.84
2019-03-06T11:19:21.205Z,86.37
2019-03-06T11:21:47.027Z,86.37
2019-03-06T11:24:12.913Z,86.20
2019-03-06T11:26:39.005Z,86.52
2019-03-06T11:29:05.998Z,87.25
2019-03-06T11:31:31.792Z,87.83
2019-03-06T11:33:57.583Z,88.00
2019-03-06T11:36:23.360Z,87.91
2019-03-06T11:38:49.202Z,86.87
2019-03-06T11:41:15.189Z,86.79
2019-03-06T11:43:40.979Z,86.66
2019-03-06T11:46:07.566Z,86.58
2019-03-06T11:48:33.467Z,85.32
2019-03-06T11:50:59.251Z,85.32
2019-03-06T11:53:26.410Z,85.67
2019-03-06T11:55:52.204Z,85.01
2019-03-06T11:58:18.002Z,84.50
2019-03-06T12:00:45.317Z,84.13
2019-03-06T12:03:11.968Z,84.02
2019-03-06T12:05:37.759Z,83.92
2019-03-06T12:08:06.391Z,83.92
2019-03-06T12:10:32.460Z,83.04
2019-03-06T12:12:58.367Z,82.81
2019-03-06T12:15:24.255Z,82.81
2019-03-06T12:17:50.342Z,83.24
2019-03-06T12:20:16.141Z,83.67
2019-03-06T12:22:41.934Z,83.33
2019-03-06T12:25:09.447Z,83.39
2019-03-06T12:27:35.429Z,82.99
2019-03-06T12:30:01.227Z,82.42
2019-03-06T12:32:27.354Z,83.00
2019-03-06T12:34:53.199Z,82.97
2019-03-06T12:37:18.993Z,82.97
2019-03-06T12:39:44.827Z,83.14
2019-03-06T12:42:14.249Z,83.25
2019-03-06T12:44:38.447Z,83.78
2019-03-06T12:47:04.324Z,83.66
2019-03-06T12:49:30.144Z,83.95
2019-03-06T12:51:55.932Z,84.26
2019-03-06T12:54:21.744Z,84.33
2019-03-06T12:56:47.503Z,84.95
2019-03-06T12:59:13.399Z,85.23
2019-03-06T13:01:39.341Z,85.62
2019-03-06T13:04:05.292Z,85.45
2019-03-06T13:06:31.075Z,85.98
2019-03-06T13:08:57.659Z,86.41
2019-03-06T13:11:23.456Z,86.56
2019-03-06T13:13:49.234Z,86.83
2019-03-06T13:16:15.958Z,86.39
2019-03-06T13:18:41.833Z,86.39
2019-03-06T13:21:08.244Z,85.96
2019-03-06T13:23:34.436Z,85.67
2019-03-06T13:26:00.238Z,85.67
2019-03-06T13:28:26.022Z,85.24
2019-03-06T13:30:51.817Z,85.28
2019-03-06T13:33:28.546Z,85.36
2019-03-06T13:35:54.359Z,85.30
2019-03-06T13:38:20.241Z,85.06
2019-03-06T13:40:46.037Z,84.84
2019-03-06T13:43:11.833Z,84.25
2019-03-06T13:45:37.630Z,83.58
2019-03-06T13:48:03.409Z,83.52
2019-03-06T13:50:29.210Z,83.42
2019-03-06T13:52:54.997Z,83.08
2019-03-06T13:55:20.824Z,82.95
2019-03-06T13:57:46.646Z,82.87
2019-03-06T14:00:18.396Z,82.66
2019-03-06T14:02:45.455Z,82.54
2019-03-06T14:05:12.248Z,81.95
2019-03-06T14:07:38.048Z,81.13
2019-03-06T14:10:06.145Z,81.13
2019-03-06T14:12:32.029Z,81.19
2019-03-06T14:14:57.895Z,80.80
2019-03-06T14:17:23.902Z,80.11
2019-03-06T14:19:49.693Z,80.00
2019-03-06T14:22:15.510Z,79.67
2019-03-06T14:24:41.389Z,79.87
2019-03-06T14:27:07.399Z,79.74
2019-03-06T14:29:33.195Z,79.90
2019-03-06T14:31:58.990Z,79.09
2019-03-06T14:34:24.778Z,79.10
2019-03-06T14:36:50.777Z,79.10
2019-03-06T14:39:20.379Z,79.03
2019-03-06T14:41:46.181Z,79.10
2019-03-06T14:44:11.962Z,78.71
2019-03-06T14:46:37.767Z,78.87
2019-03-06T14:49:03.560Z,78.90
2019-03-06T14:51:29.353Z,78.67
2019-03-06T14:53:55.132Z,79.07
2019-03-06T14:56:21.162Z,79.17
2019-03-06T14:58:47.053Z,79.19
2019-03-06T15:01:12.834Z,78.86
2019-03-06T15:03:38.634Z,79.22
2019-03-06T15:06:04.610Z,79.40
2019-03-06T15:08:30.413Z,79.25
2019-03-06T15:10:56.193Z,79.00
2019-03-06T15:13:22.000Z,78.92
2019-03-06T15:15:47.783Z,79.08
2019-03-06T15:18:13.603Z,79.33
2019-03-06T15:20:39.388Z,78.93
2019-03-06T15:23:05.287Z,78.78
2019-03-06T15:25:31.071Z,79.06
2019-03-06T15:27:56.868Z,79.46
2019-03-06T15:30:22.652Z,79.64
2019-03-06T15:32:48.548Z,79.77
2019-03-06T15:35:14.745Z,80.04
2019-03-06T15:37:40.545Z,80.34
2019-03-06T15:40:20.002Z,80.64
2019-03-06T15:42:46.109Z,80.90
2019-03-06T15:45:12.201Z,80.95
2019-03-06T15:47:38.989Z,81.15
2019-03-06T15:50:08.526Z,81.32
2019-03-06T15:52:34.412Z,81.94
2019-03-06T15:55:00.347Z,81.92
2019-03-06T15:57:26.134Z,81.66
2019-03-06T15:59:52.031Z,81.93
2019-03-06T16:02:17.912Z,82.05
2019-03-06T16:04:43.801Z,82.15
2019-03-06T16:07:09.780Z,82.16
2019-03-06T16:09:35.792Z,82.67
2019-03-06T16:12:01.569Z,82.67
2019-03-06T16:14:27.369Z,82.19
2019-03-06T16:16:53.152Z,82.41
2019-03-06T16:19:18.947Z,82.40
2019-03-06T16:21:44.740Z,82.65
2019-03-06T16:24:10.541Z,82.26
2019-03-06T16:26:36.332Z,82.27
2019-03-06T16:29:02.544Z,82.77
2019-03-06T16:31:28.326Z,82.83
2019-03-06T16:33:54.142Z,83.26
2019-03-06T16:36:19.918Z,83.14
2019-03-06T16:38:45.726Z,83.24
2019-03-06T16:41:11.515Z,82.71
2019-03-06T16:43:37.306Z,83.87
2019-03-06T16:46:03.188Z,83.99
2019-03-06T16:48:29.171Z,83.93
2019-03-06T16:50:54.969Z,84.19
2019-03-06T16:53:20.745Z,84.22
2019-03-06T16:55:46.554Z,84.10
2019-03-06T16:58:12.334Z,84.71
2019-03-06T17:00:38.225Z,84.52
2019-03-06T17:03:08.425Z,84.54
2019-03-06T17:05:34.621Z,85.25
2019-03-06T17:08:00.911Z,85.33
2019-03-06T17:10:28.127Z,85.66
2019-03-06T17:12:54.416Z,85.66
2019-03-06T17:15:21.514Z,85.45
2019-03-06T17:17:47.399Z,85.86
2019-03-06T17:20:17.010Z,86.05
2019-03-06T17:22:43.402Z,86.23
2019-03-06T17:25:09.396Z,86.70
2019-03-06T17:27:35.587Z,86.98
2019-03-06T17:30:01.492Z,87.32
2019-03-06T17:32:27.268Z,87.73
2019-03-06T17:34:53.082Z,88.24
2019-03-06T17:37:18.861Z,88.85
2019-03-06T17:39:44.653Z,89.42
2019-03-06T17:42:10.435Z,89.51
2019-03-06T17:44:36.243Z,89.53
2019-03-06T17:47:02.010Z,89.72
2019-03-06T17:49:27.798Z,90.11
2019-03-06T17:51:53.600Z,90.56
2019-03-06T17:54:19.377Z,90.58
2019-03-06T17:56:46.747Z,90.82
2019-03-06T17:59:12.659Z,91.04
2019-03-06T18:01:38.456Z,91.45
2019-03-06T18:04:06.149Z,91.56
2019-03-06T18:06:31.948Z,91.80
2019-03-06T18:08:57.729Z,91.91
2019-03-06T18:11:23.831Z,92.12
2019-03-06T18:13:49.616Z,92.52
2019-03-06T18:16:15.431Z,92.78
2019-03-06T18:18:41.220Z,92.96
2019-03-06T18:21:07.237Z,93.52
2019-03-06T18:23:34.412Z,93.52
2019-03-06T18:26:00.420Z,93.69
2019-03-06T18:28:26.203Z,93.89
2019-03-06T18:30:52.000Z,94.04
2019-03-06T18:33:17.789Z,94.10
2019-03-06T18:35:43.584Z,94.12
2019-03-06T18:38:09.385Z,94.39
2019-03-06T18:40:35.176Z,94.55
2019-03-06T18:43:01.178Z,94.58
2019-03-06T18:45:26.966Z,94.82
2019-03-06T18:47:52.772Z,94.89
2019-03-06T18:50:22.438Z,94.97
2019-03-06T18:52:48.329Z,95.16
2019-03-06T18:55:15.428Z,95.26
2019-03-06T18:57:41.316Z,95.58
2019-03-06T19:00:10.909Z,95.59
2019-03-06T19:02:36.711Z,95.64
2019-03-06T19:05:04.892Z,95.87
2019-03-06T19:07:30.687Z,95.77
2019-03-06T19:09:56.464Z,95.76
2019-03-06T19:12:22.256Z,95.99
2019-03-06T19:14:48.042Z,96.04
2019-03-06T19:17:13.838Z,95.99
2019-03-06T19:19:39.724Z,96.19
2019-03-06T19:22:05.627Z,96.30
2019-03-06T19:24:31.424Z,96.35
2019-03-06T19:26:57.209Z,96.35
2019-03-06T19:29:23.018Z,96.31
2019-03-06T19:31:48.896Z,96.26
2019-03-06T19:34:14.693Z,96.30
2019-03-06T19:36:40.469Z,96.23
2019-03-06T19:39:06.393Z,96.39
2019-03-06T19:41:32.384Z,96.35
2019-03-06T19:43:58.177Z,96.36
2019-03-06T19:46:24.006Z,96.39
2019-03-06T19:48:51.728Z,96.59
2019-03-06T19:51:17.512Z,96.53
2019-03-06T19:53:43.320Z,96.57
2019-03-06T19:56:09.099Z,96.56
2019-03-06T19:58:34.951Z,96.50
2019-03-06T20:01:00.723Z,96.59
2019-03-06T20:03:26.721Z,96.52
2019-03-06T20:05:52.497Z,96.61
2019-03-06T20:08:18.291Z,96.47
2019-03-06T20:10:44.073Z,96.58
2019-03-06T20:13:10.470Z,96.57
2019-03-06T20:15:37.264Z,96.65
2019-03-06T20:18:03.051Z,96.70
2019-03-06T20:20:28.853Z,96.75
2019-03-06T20:22:54.949Z,96.82
2019-03-06T20:25:22.678Z,96.89
2019-03-06T20:27:48.630Z,96.91
2019-03-06T20:30:19.391Z,97.00
2019-03-06T20:32:47.226Z,96.98
2019-03-06T20:35:15.978Z,96.98
2019-03-06T20:37:41.766Z,96.99
2019-03-06T20:40:09.271Z,96.95
2019-03-06T20:42:35.054Z,97.10
2019-03-06T20:45:00.849Z,96.90
2019-03-06T20:47:26.624Z,97.06
2019-03-06T20:49:52.421Z,97.01
2019-03-06T20:52:18.207Z,97.07
2019-03-06T20:54:43.997Z,96.94
2019-03-06T20:57:12.054Z,96.96
2019-03-06T20:59:38.451Z,96.93
2019-03-06T21:02:04.710Z,97.03
2019-03-06T21:04:30.720Z,96.96
2019-03-06T21:06:56.814Z,96.92
2019-03-06T21:09:22.976Z,96.98
2019-03-06T21:11:48.758Z,96.98
2019-03-06T21:14:14.545Z,97.05
2019-03-06T21:16:40.611Z,96.96
2019-03-06T21:19:06.678Z,96.93
2019-03-06T21:21:32.495Z,96.93
2019-03-06T21:23:58.606Z,96.88
2019-03-06T21:26:24.608Z,96.93
2019-03-06T21:28:50.396Z,96.95
2019-03-06T21:31:21.118Z,96.73
2019-03-06T21:33:47.014Z,96.78
2019-03-06T21:36:12.805Z,96.81
2019-03-06T21:38:38.585Z,96.90
2019-03-06T21:41:04.377Z,96.88
2019-03-06T21:43:31.899Z,96.75
2019-03-06T21:45:57.826Z,96.82
2019-03-06T21:48:25.685Z,96.90
2019-03-06T21:50:51.949Z,96.93
2019-03-06T21:53:20.223Z,96.94
2019-03-06T21:55:48.194Z,97.05
2019-03-06T21:58:14.048Z,97.03
2019-03-06T22:00:39.829Z,96.96
2019-03-06T22:03:05.613Z,96.97
2019-03-06T22:05:31.404Z,97.18
2019-03-06T22:07:57.350Z,97.23
2019-03-06T22:10:25.504Z,97.22
2019-03-06T22:12:54.322Z,97.12
2019-03-06T22:15:21.530Z,97.15
2019-03-06T22:17:47.327Z,97.22
2019-03-06T22:20:13.890Z,97.28
2019-03-06T22:22:39.791Z,97.28
2019-03-06T22:25:10.897Z,97.11
2019-03-06T22:27:38.035Z,97.19
2019-03-06T22:30:07.474Z,97.15
2019-03-06T22:32:33.373Z,97.15
2019-03-06T22:34:59.612Z,97.28
2019-03-06T22:37:25.547Z,97.17
2019-03-06T22:39:51.821Z,96.91
2019-03-06T22:42:17.630Z,96.85
2019-03-06T22:44:43.408Z,96.85
2019-03-06T22:47:09.223Z,96.90
2019-03-06T22:49:35.006Z,96.74
2019-03-06T22:52:00.836Z,96.74
2019-03-06T22:54:26.617Z,96.83
2019-03-06T22:56:52.396Z,96.86
2019-03-06T22:59:18.191Z,96.69
2019-03-06T23:01:44.167Z,96.79
2019-03-06T23:04:09.961Z,96.59
2019-03-06T23:06:35.756Z,96.53
2019-03-06T23:09:01.545Z,96.53
2019-03-06T23:11:27.532Z,96.41
2019-03-06T23:13:53.320Z,96.42
2019-03-06T23:16:19.108Z,96.34
2019-03-06T23:18:44.903Z,96.35
2019-03-06T23:21:10.695Z,96.31
2019-03-06T23:23:36.710Z,96.37
2019-03-06T23:26:02.498Z,96.21
2019-03-06T23:28:28.287Z,96.11
2019-03-06T23:30:54.072Z,96.04
2019-03-06T23:33:19.867Z,96.14
2019-03-06T23:35:45.653Z,96.12
2019-03-06T23:38:11.464Z,96.03
2019-03-06T23:40:37.245Z,96.07
2019-03-06T23:43:05.821Z,95.94
2019-03-06T23:45:31.821Z,95.75
2019-03-06T23:47:57.615Z,95.80
2019-03-06T23:50:23.423Z,95.71
2019-03-06T23:53:02.944Z,95.71
2019-03-06T23:55:30.656Z,95.22
2019-03-06T23:57:56.777Z,95.17
